createdAt,value
2017-08-27T00:00:40.774Z,18.40
2017-08-27T00:03:07.439Z,16.30
2017-08-27T00:05:34.194Z,17.08
2017-08-27T00:08:00.887Z,15.85
2017-08-27T00:10:27.540Z,18.00
2017-08-27T00:12:54.297Z,17.92
2017-08-27T00:15:21.151Z,17.08
2017-08-27T00:17:47.899Z,16.15
2017-08-27T00:20:14.556Z,15.65
2017-08-27T00:22:41.225Z,17.65
2017-08-27T00:25:07.895Z,16.75
2017-08-27T00:27:34.564Z,18.77
2017-08-27T00:30:01.299Z,16.48
2017-08-27T00:32:27.970Z,18.00
2017-08-27T00:34:54.624Z,16.33
2017-08-27T00:37:21.315Z,20.33
2017-08-27T00:39:47.984Z,18.98
2017-08-27T00:42:14.692Z,20.08
2017-08-27T00:44:41.372Z,22.10
2017-08-27T00:47:08.078Z,22.90
2017-08-27T00:49:34.747Z,22.62
2017-08-27T00:52:01.434Z,23.00
2017-08-27T00:54:28.189Z,21.65
2017-08-27T00:56:54.851Z,23.50
2017-08-27T00:59:21.542Z,23.80
2017-08-27T01:01:48.192Z,24.25
2017-08-27T01:04:14.912Z,23.62
2017-08-27T01:06:41.607Z,23.30
2017-08-27T01:09:08.255Z,25.65
2017-08-27T01:11:34.923Z,26.10
2017-08-27T01:14:01.717Z,29.30
2017-08-27T01:16:28.466Z,28.58
2017-08-27T01:18:55.185Z,27.25
2017-08-27T01:21:21.948Z,24.10
2017-08-27T01:23:48.615Z,25.35
2017-08-27T01:26:15.319Z,24.17
2017-08-27T01:28:42.074Z,22.67
2017-08-27T01:31:08.739Z,25.10
2017-08-27T01:33:35.388Z,26.15
2017-08-27T01:36:02.185Z,23.17
2017-08-27T01:38:28.851Z,23.08
2017-08-27T01:40:55.560Z,22.42
2017-08-27T01:43:22.247Z,22.42
2017-08-27T01:45:48.901Z,21.12
2017-08-27T01:48:15.552Z,21.70
2017-08-27T01:50:42.324Z,19.25
2017-08-27T01:53:09.079Z,21.23
2017-08-27T01:55:35.732Z,22.48
2017-08-27T01:58:02.458Z,20.23
2017-08-27T02:00:29.176Z,19.75
2017-08-27T02:02:55.932Z,21.75
2017-08-27T02:05:22.714Z,21.73
2017-08-27T02:07:49.378Z,20.52
2017-08-27T02:10:16.044Z,21.25
2017-08-27T02:12:42.720Z,21.50
2017-08-27T02:15:09.424Z,20.48
2017-08-27T02:17:36.077Z,21.40
2017-08-27T02:20:02.821Z,20.33
2017-08-27T02:22:29.549Z,19.65
2017-08-27T02:24:56.293Z,21.58
2017-08-27T02:27:22.966Z,19.95
2017-08-27T02:29:49.617Z,16.50
2017-08-27T02:32:16.304Z,19.80
2017-08-27T02:34:42.995Z,21.25
2017-08-27T02:37:09.651Z,21.67
2017-08-27T02:39:36.321Z,21.70
2017-08-27T02:42:02.996Z,20.83
2017-08-27T02:44:29.715Z,22.00
2017-08-27T02:46:56.478Z,21.65
2017-08-27T02:49:23.156Z,20.25
2017-08-27T02:51:49.823Z,20.37
2017-08-27T02:54:16.587Z,20.48
2017-08-27T02:56:43.280Z,18.77
2017-08-27T02:59:09.927Z,21.50
2017-08-27T03:01:36.586Z,19.85
2017-08-27T03:04:03.260Z,22.87
2017-08-27T03:06:30.720Z,21.42
2017-08-27T03:08:57.447Z,23.52
2017-08-27T03:11:24.144Z,25.40
2017-08-27T03:13:50.806Z,22.67
2017-08-27T03:16:17.555Z,22.37
2017-08-27T03:18:44.223Z,21.55
2017-08-27T03:21:10.873Z,20.02
2017-08-27T03:23:37.532Z,20.88
2017-08-27T03:26:05.206Z,20.27
2017-08-27T03:28:32.086Z,22.15
2017-08-27T03:30:58.791Z,20.23
2017-08-27T03:33:25.560Z,21.20
2017-08-27T03:35:52.581Z,20.15
2017-08-27T03:38:19.462Z,19.95
2017-08-27T03:40:46.225Z,21.58
2017-08-27T03:43:12.920Z,21.48
2017-08-27T03:45:39.893Z,21.77
2017-08-27T03:48:06.937Z,21.23
2017-08-27T03:50:33.678Z,21.62
2017-08-27T03:53:00.341Z,20.67
2017-08-27T03:55:26.990Z,20.55
2017-08-27T03:57:53.802Z,20.83
2017-08-27T04:00:20.516Z,20.37
2017-08-27T04:02:47.489Z,21.62
2017-08-27T04:05:14.239Z,20.60
2017-08-27T04:07:40.919Z,23.10
2017-08-27T04:10:07.749Z,23.90
2017-08-27T04:12:34.449Z,23.55
2017-08-27T04:15:01.207Z,24.73
2017-08-27T04:17:27.951Z,26.00
2017-08-27T04:19:55.499Z,24.40
2017-08-27T04:22:22.342Z,22.77
2017-08-27T04:24:49.006Z,23.73
2017-08-27T04:27:15.694Z,24.80
2017-08-27T04:29:42.343Z,23.58
2017-08-27T04:32:09.239Z,25.77
2017-08-27T04:34:36.152Z,24.15
2017-08-27T04:37:02.964Z,25.62
2017-08-27T04:39:30.512Z,24.00
2017-08-27T04:41:57.351Z,26.20
2017-08-27T04:44:24.345Z,23.00
2017-08-27T04:46:51.142Z,23.98
2017-08-27T04:49:17.820Z,25.52
2017-08-27T04:51:44.483Z,24.33
2017-08-27T04:54:11.619Z,22.87
2017-08-27T04:56:38.456Z,24.10
2017-08-27T04:59:05.106Z,25.95
2017-08-27T05:01:32.251Z,23.45
2017-08-27T05:04:01.803Z,24.23
2017-08-27T05:06:28.673Z,22.55
2017-08-27T05:08:55.372Z,24.00
2017-08-27T05:11:23.400Z,24.00
2017-08-27T05:13:51.069Z,21.10
2017-08-27T05:16:17.803Z,23.08
2017-08-27T05:18:45.524Z,22.80
2017-08-27T05:21:12.217Z,21.85
2017-08-27T05:23:38.924Z,22.92
2017-08-27T05:26:05.701Z,20.55
2017-08-27T05:28:33.166Z,20.60
2017-08-27T05:30:59.894Z,20.65
2017-08-27T05:33:27.474Z,19.10
2017-08-27T05:35:54.355Z,22.95
2017-08-27T05:38:21.955Z,21.60
2017-08-27T05:40:48.919Z,19.77
2017-08-27T05:43:15.864Z,22.73
2017-08-27T05:45:43.836Z,19.25
2017-08-27T05:48:11.779Z,18.05
2017-08-27T05:50:40.447Z,18.15
2017-08-27T05:53:08.127Z,18.23
2017-08-27T05:55:36.187Z,16.48
2017-08-27T05:58:03.996Z,17.42
2017-08-27T06:00:30.719Z,18.08
2017-08-27T06:02:57.488Z,17.37
2017-08-27T06:05:24.140Z,16.85
2017-08-27T06:07:50.806Z,16.85
2017-08-27T06:10:17.495Z,16.87
2017-08-27T06:12:44.148Z,19.30
2017-08-27T06:15:10.796Z,15.50
2017-08-27T06:17:37.523Z,16.98
2017-08-27T06:20:04.267Z,17.67
2017-08-27T06:22:30.990Z,17.12
2017-08-27T06:24:57.683Z,17.55
2017-08-27T06:27:24.341Z,17.48
2017-08-27T06:29:51.014Z,15.68
2017-08-27T06:32:18.056Z,16.52
2017-08-27T06:34:44.723Z,16.65
2017-08-27T06:37:11.463Z,15.82
2017-08-27T06:39:38.162Z,15.45
2017-08-27T06:42:04.943Z,15.45
2017-08-27T06:44:31.606Z,14.32
2017-08-27T06:46:58.294Z,14.70
2017-08-27T06:49:24.962Z,15.88
2017-08-27T06:51:51.612Z,15.88
2017-08-27T06:54:18.338Z,16.10
2017-08-27T06:56:45.079Z,15.15
2017-08-27T06:59:11.742Z,16.95
2017-08-27T07:01:38.449Z,17.50
2017-08-27T07:04:05.204Z,18.35
2017-08-27T07:06:31.947Z,17.30
2017-08-27T07:08:58.645Z,17.15
2017-08-27T07:11:25.420Z,15.90
2017-08-27T07:13:52.170Z,17.25
2017-08-27T07:16:18.871Z,19.20
2017-08-27T07:18:45.652Z,16.75
2017-08-27T07:21:12.309Z,18.25
2017-08-27T07:23:39.035Z,20.85
2017-08-27T07:26:05.704Z,21.60
2017-08-27T07:28:32.358Z,20.40
2017-08-27T07:30:59.155Z,20.85
2017-08-27T07:33:25.895Z,20.75
2017-08-27T07:35:52.548Z,20.95
2017-08-27T07:38:19.275Z,20.83
2017-08-27T07:40:45.946Z,20.70
2017-08-27T07:43:12.659Z,20.48
2017-08-27T07:45:39.347Z,21.37
2017-08-27T07:48:06.020Z,21.05
2017-08-27T07:50:32.779Z,21.55
2017-08-27T07:52:59.509Z,23.00
2017-08-27T07:55:26.164Z,21.67
2017-08-27T07:57:52.833Z,21.50
2017-08-27T08:00:19.538Z,22.17
2017-08-27T08:02:46.192Z,20.58
2017-08-27T08:05:12.849Z,21.77
2017-08-27T08:07:39.548Z,18.55
2017-08-27T08:10:06.196Z,22.25
2017-08-27T08:12:32.867Z,15.90
2017-08-27T08:14:59.544Z,24.58
2017-08-27T08:17:26.319Z,24.05
2017-08-27T08:19:52.972Z,23.80
2017-08-27T08:22:19.699Z,23.83
2017-08-27T08:24:46.357Z,20.33
2017-08-27T08:27:13.069Z,23.38
2017-08-27T08:29:39.823Z,23.05
2017-08-27T08:32:06.474Z,20.80
2017-08-27T08:34:33.188Z,23.05
2017-08-27T08:36:59.872Z,23.60
2017-08-27T08:39:26.542Z,22.62
2017-08-27T08:41:53.212Z,23.23
2017-08-27T08:44:19.896Z,23.85
2017-08-27T08:46:46.548Z,25.35
2017-08-27T08:49:13.215Z,25.45
2017-08-27T08:51:39.903Z,24.55
2017-08-27T08:54:06.575Z,24.17
2017-08-27T08:56:33.263Z,21.70
2017-08-27T08:59:00.008Z,25.83
2017-08-27T09:01:26.750Z,23.42
2017-08-27T09:03:53.400Z,21.75
2017-08-27T09:06:20.116Z,22.52
2017-08-27T09:08:46.866Z,20.50
2017-08-27T09:11:13.530Z,20.17
2017-08-27T09:13:40.229Z,21.42
2017-08-27T09:16:06.988Z,22.33
2017-08-27T09:18:33.651Z,22.60
2017-08-27T09:21:00.343Z,18.87
2017-08-27T09:23:27.011Z,21.33
2017-08-27T09:25:53.669Z,18.33
2017-08-27T09:28:20.392Z,17.55
2017-08-27T09:30:47.044Z,17.70
2017-08-27T09:33:13.715Z,17.23
2017-08-27T09:35:40.493Z,16.45
2017-08-27T09:38:07.251Z,15.73
2017-08-27T09:40:33.919Z,13.77
2017-08-27T09:43:00.624Z,13.68
2017-08-27T09:45:27.275Z,13.02
2017-08-27T09:47:53.938Z,11.30
2017-08-27T09:50:20.631Z,12.37
2017-08-27T09:52:47.299Z,11.20
2017-08-27T09:55:13.987Z,11.48
2017-08-27T09:57:40.679Z,10.23
2017-08-27T10:00:07.344Z,9.73
2017-08-27T10:02:34.032Z,9.20
2017-08-27T10:05:00.704Z,9.57
2017-08-27T10:07:27.353Z,9.90
2017-08-27T10:09:53.996Z,9.95
2017-08-27T10:12:20.680Z,9.75
2017-08-27T10:14:47.350Z,9.15
2017-08-27T10:17:14.071Z,9.45
2017-08-27T10:19:40.735Z,8.70
2017-08-27T10:22:07.399Z,8.63
2017-08-27T10:24:34.886Z,9.20
2017-08-27T10:27:01.607Z,9.15
2017-08-27T10:29:28.260Z,9.25
2017-08-27T10:31:54.948Z,8.90
2017-08-27T10:34:21.630Z,9.40
2017-08-27T10:36:48.294Z,8.45
2017-08-27T10:39:15.071Z,8.18
2017-08-27T10:41:41.751Z,8.65
2017-08-27T10:44:08.393Z,7.55
2017-08-27T10:46:35.042Z,7.97
2017-08-27T10:49:01.712Z,7.80
2017-08-27T10:51:28.460Z,7.85
2017-08-27T10:53:55.211Z,8.27
2017-08-27T10:56:21.937Z,7.05
2017-08-27T10:58:48.585Z,8.00
2017-08-27T11:01:15.335Z,7.60
2017-08-27T11:03:42.023Z,8.65
2017-08-27T11:06:08.697Z,6.60
2017-08-27T11:08:35.451Z,6.57
2017-08-27T11:11:02.143Z,8.48
2017-08-27T11:13:28.801Z,8.63
2017-08-27T11:15:55.481Z,7.87
2017-08-27T11:18:22.166Z,7.80
2017-08-27T11:20:48.820Z,7.95
2017-08-27T11:23:15.576Z,7.55
2017-08-27T11:25:42.329Z,19.30
2017-08-27T11:28:08.992Z,17.30
2017-08-27T11:30:35.705Z,7.80
2017-08-27T11:33:02.387Z,8.17
2017-08-27T11:35:29.059Z,9.10
2017-08-27T11:37:55.723Z,7.80
2017-08-27T11:40:22.463Z,8.20
2017-08-27T11:42:49.225Z,7.47
2017-08-27T11:45:15.882Z,8.17
2017-08-27T11:47:42.575Z,8.13
2017-08-27T11:50:09.245Z,7.95
2017-08-27T11:52:35.965Z,7.50
2017-08-27T11:55:02.705Z,7.10
2017-08-27T11:57:30.914Z,6.40
2017-08-27T11:59:58.742Z,9.33
2017-08-27T12:02:25.861Z,6.90
2017-08-27T12:04:54.986Z,7.67
2017-08-27T12:07:22.048Z,7.30
2017-08-27T12:09:48.794Z,6.80
2017-08-27T12:12:15.440Z,7.63
2017-08-27T12:14:42.178Z,7.40
2017-08-27T12:17:08.852Z,6.43
2017-08-27T12:19:35.515Z,7.20
2017-08-27T12:22:02.198Z,7.53
2017-08-27T12:24:28.924Z,7.27
2017-08-27T12:26:55.689Z,6.80
2017-08-27T12:29:22.332Z,6.50
2017-08-27T12:31:49.001Z,6.40
2017-08-27T12:34:15.667Z,11.27
2017-08-27T12:36:42.312Z,6.13
2017-08-27T12:39:09.064Z,6.37
2017-08-27T12:41:35.723Z,6.07
2017-08-27T12:44:02.382Z,7.40
2017-08-27T12:46:29.048Z,5.80
2017-08-27T12:48:55.708Z,6.50
2017-08-27T12:51:22.349Z,5.97
2017-08-27T12:53:49.020Z,5.93
2017-08-27T12:56:15.749Z,6.43
2017-08-27T12:58:42.488Z,5.97
2017-08-27T13:01:09.179Z,4.80
2017-08-27T13:03:35.838Z,5.10
2017-08-27T13:06:02.498Z,5.80
2017-08-27T13:08:29.169Z,5.20
2017-08-27T13:10:55.807Z,5.30
2017-08-27T13:13:22.449Z,5.30
2017-08-27T13:15:49.120Z,5.27
2017-08-27T13:18:15.803Z,4.60
2017-08-27T13:20:42.452Z,5.53
2017-08-27T13:23:09.136Z,9.37
2017-08-27T13:25:35.843Z,5.33
2017-08-27T13:28:02.559Z,5.07
2017-08-27T13:30:29.234Z,4.90
2017-08-27T13:32:55.955Z,4.20
2017-08-27T13:35:22.619Z,4.87
2017-08-27T13:37:49.339Z,4.90
2017-08-27T13:40:16.000Z,4.83
2017-08-27T13:42:42.710Z,4.40
2017-08-27T13:45:09.448Z,21.70
2017-08-27T13:47:37.392Z,4.50
2017-08-27T13:50:04.065Z,6.40
2017-08-27T13:52:30.728Z,7.77
2017-08-27T13:54:57.383Z,6.10
2017-08-27T13:57:24.104Z,4.43
2017-08-27T13:59:50.791Z,4.70
2017-08-27T14:02:17.428Z,4.63
2017-08-27T14:04:44.068Z,4.70
2017-08-27T14:07:10.743Z,4.53
2017-08-27T14:09:37.484Z,14.80
2017-08-27T14:12:04.136Z,45.17
2017-08-27T14:14:30.824Z,4.13
2017-08-27T14:16:57.511Z,8.43
2017-08-27T14:19:24.166Z,9.97
2017-08-27T14:21:50.836Z,4.93
2017-08-27T14:24:17.484Z,6.00
2017-08-27T14:26:44.124Z,6.20
2017-08-27T14:29:10.809Z,6.17
2017-08-27T14:31:37.474Z,9.70
2017-08-27T14:34:04.124Z,5.50
2017-08-27T14:36:30.826Z,5.70
2017-08-27T14:38:57.570Z,4.80
2017-08-27T14:41:24.302Z,5.40
2017-08-27T14:43:50.999Z,5.30
2017-08-27T14:46:17.668Z,6.33
2017-08-27T14:48:44.313Z,5.80
2017-08-27T14:51:11.054Z,6.57
2017-08-27T14:53:37.719Z,5.90
2017-08-27T14:56:04.438Z,5.03
2017-08-27T14:58:31.172Z,7.77
2017-08-27T15:00:57.948Z,8.73
2017-08-27T15:03:24.611Z,9.20
2017-08-27T15:05:51.306Z,9.13
2017-08-27T15:08:18.042Z,6.47
2017-08-27T15:10:44.684Z,7.67
2017-08-27T15:13:11.376Z,10.00
2017-08-27T15:15:38.080Z,6.40
2017-08-27T15:18:04.731Z,7.80
2017-08-27T15:20:31.451Z,8.33
2017-08-27T15:22:58.180Z,7.70
2017-08-27T15:25:24.815Z,6.37
2017-08-27T15:27:51.489Z,7.00
2017-08-27T15:30:18.202Z,7.30
2017-08-27T15:32:44.941Z,6.73
2017-08-27T15:35:11.686Z,8.30
2017-08-27T15:37:38.347Z,6.47
2017-08-27T15:40:05.066Z,6.60
2017-08-27T15:42:31.744Z,5.80
2017-08-27T15:44:58.402Z,6.13
2017-08-27T15:47:25.095Z,6.30
2017-08-27T15:49:51.763Z,6.10
2017-08-27T15:52:18.484Z,7.53
2017-08-27T15:54:45.206Z,6.47
2017-08-27T15:57:11.949Z,7.03
2017-08-27T15:59:38.591Z,6.20
2017-08-27T16:02:05.248Z,6.40
2017-08-27T16:04:31.926Z,7.40
2017-08-27T16:06:58.573Z,6.60
2017-08-27T16:09:25.254Z,7.67
2017-08-27T16:11:51.928Z,7.00
2017-08-27T16:14:18.582Z,5.87
2017-08-27T16:16:45.250Z,6.00
2017-08-27T16:19:12.019Z,7.00
2017-08-27T16:21:38.674Z,8.10
2017-08-27T16:24:05.338Z,7.60
2017-08-27T16:26:32.029Z,8.40
2017-08-27T16:28:58.676Z,7.50
2017-08-27T16:31:25.317Z,6.90
2017-08-27T16:33:52.000Z,6.87
2017-08-27T16:36:18.693Z,7.47
2017-08-27T16:38:45.332Z,8.13
2017-08-27T16:41:12.025Z,7.90
2017-08-27T16:43:38.680Z,8.10
2017-08-27T16:46:05.325Z,7.40
2017-08-27T16:48:32.011Z,8.87
2017-08-27T16:50:58.680Z,9.97
2017-08-27T16:53:25.342Z,9.60
2017-08-27T16:55:52.100Z,8.40
2017-08-27T16:58:18.840Z,10.20
2017-08-27T17:00:45.488Z,11.00
2017-08-27T17:03:12.229Z,11.23
2017-08-27T17:05:38.884Z,10.15
2017-08-27T17:08:05.540Z,10.40
2017-08-27T17:10:32.240Z,10.75
2017-08-27T17:12:58.892Z,9.82
2017-08-27T17:15:25.725Z,9.50
2017-08-27T17:17:52.404Z,10.55
2017-08-27T17:20:19.072Z,10.30
2017-08-27T17:22:45.743Z,10.32
2017-08-27T17:25:12.433Z,11.57
2017-08-27T17:27:39.080Z,11.73
2017-08-27T17:30:05.732Z,10.88
2017-08-27T17:32:32.424Z,11.00
2017-08-27T17:34:59.096Z,11.00
2017-08-27T17:37:25.767Z,10.07
2017-08-27T17:39:52.467Z,12.30
2017-08-27T17:42:19.127Z,12.10
2017-08-27T17:44:45.794Z,11.07
2017-08-27T17:47:12.473Z,11.50
2017-08-27T17:49:39.120Z,11.20
2017-08-27T17:52:05.773Z,12.13
2017-08-27T17:54:32.480Z,11.65
2017-08-27T17:56:59.129Z,11.40
2017-08-27T17:59:25.804Z,12.40
2017-08-27T18:01:52.481Z,12.13
2017-08-27T18:04:19.147Z,11.48
2017-08-27T18:06:45.814Z,13.23
2017-08-27T18:09:12.489Z,12.07
2017-08-27T18:11:39.140Z,12.15
2017-08-27T18:14:05.788Z,12.75
2017-08-27T18:16:32.472Z,13.90
2017-08-27T18:18:59.124Z,12.13
2017-08-27T18:21:25.772Z,12.70
2017-08-27T18:23:52.461Z,11.50
2017-08-27T18:26:19.129Z,12.10
2017-08-27T18:28:45.800Z,12.40
2017-08-27T18:31:12.490Z,15.40
2017-08-27T18:33:39.140Z,12.95
2017-08-27T18:36:05.793Z,14.45
2017-08-27T18:38:32.501Z,13.57
2017-08-27T18:40:59.233Z,12.63
2017-08-27T18:43:25.903Z,13.48
2017-08-27T18:45:52.581Z,13.73
2017-08-27T18:48:19.228Z,13.32
2017-08-27T18:50:45.990Z,12.70
2017-08-27T18:53:12.726Z,12.95
2017-08-27T18:55:39.372Z,12.80
2017-08-27T18:58:06.024Z,13.15
2017-08-27T19:00:32.711Z,13.07
2017-08-27T19:03:02.331Z,12.80
2017-08-27T19:05:29.107Z,13.82
2017-08-27T19:07:55.831Z,14.70
2017-08-27T19:10:22.484Z,12.85
2017-08-27T19:12:49.151Z,13.75
2017-08-27T19:15:15.836Z,11.23
2017-08-27T19:17:42.502Z,12.52
2017-08-27T19:20:09.164Z,11.50
2017-08-27T19:22:35.891Z,13.45
2017-08-27T19:25:02.608Z,13.10
2017-08-27T19:27:29.275Z,13.07
2017-08-27T19:29:55.952Z,12.10
2017-08-27T19:32:22.635Z,13.73
2017-08-27T19:34:49.293Z,13.10
2017-08-27T19:37:16.017Z,12.57
2017-08-27T19:39:42.748Z,12.35
2017-08-27T19:42:09.395Z,12.25
2017-08-27T19:44:36.087Z,12.23
2017-08-27T19:47:02.783Z,12.32
2017-08-27T19:49:29.451Z,13.05
2017-08-27T19:51:56.148Z,12.75
2017-08-27T19:54:23.731Z,12.40
2017-08-27T19:56:50.454Z,12.90
2017-08-27T19:59:17.150Z,12.15
2017-08-27T20:01:43.823Z,12.70
2017-08-27T20:04:10.474Z,11.95
2017-08-27T20:06:37.153Z,11.95
2017-08-27T20:09:03.819Z,12.90
2017-08-27T20:11:30.493Z,12.82
2017-08-27T20:13:57.169Z,12.65
2017-08-27T20:16:23.839Z,12.73
2017-08-27T20:18:50.507Z,13.50
2017-08-27T20:21:17.198Z,11.43
2017-08-27T20:23:43.849Z,10.93
2017-08-27T20:26:10.511Z,12.80
2017-08-27T20:28:37.180Z,12.05
2017-08-27T20:31:03.923Z,13.30
2017-08-27T20:33:30.571Z,12.55
2017-08-27T20:35:57.289Z,12.60
2017-08-27T20:38:23.955Z,13.20
2017-08-27T20:40:50.608Z,12.57
2017-08-27T20:43:17.303Z,12.93
2017-08-27T20:45:43.976Z,12.37
2017-08-27T20:48:10.629Z,12.93
2017-08-27T20:50:37.300Z,12.50
2017-08-27T20:53:03.986Z,10.93
2017-08-27T20:55:30.636Z,11.80
2017-08-27T20:57:57.312Z,12.25
2017-08-27T21:00:24.003Z,12.93
2017-08-27T21:02:50.671Z,12.68
2017-08-27T21:05:17.483Z,11.57
2017-08-27T21:07:44.132Z,11.90
2017-08-27T21:10:10.859Z,12.23
2017-08-27T21:12:37.542Z,12.48
2017-08-27T21:15:04.238Z,11.77
2017-08-27T21:17:30.883Z,11.40
2017-08-27T21:19:57.607Z,11.00
2017-08-27T21:22:24.260Z,11.77
2017-08-27T21:24:50.908Z,11.90
2017-08-27T21:27:17.633Z,11.93
2017-08-27T21:29:44.281Z,11.18
2017-08-27T21:32:11.031Z,11.30
2017-08-27T21:34:37.727Z,10.75
2017-08-27T21:37:04.388Z,9.50
2017-08-27T21:39:31.133Z,9.95
2017-08-27T21:41:57.823Z,11.23
2017-08-27T21:44:24.487Z,10.32
2017-08-27T21:46:51.166Z,10.95
2017-08-27T21:49:17.845Z,10.27
2017-08-27T21:51:44.506Z,9.80
2017-08-27T21:54:11.186Z,10.85
2017-08-27T21:56:37.875Z,9.55
2017-08-27T21:59:04.567Z,11.05
2017-08-27T22:01:31.234Z,10.30
2017-08-27T22:03:57.924Z,9.77
2017-08-27T22:06:24.579Z,11.82
2017-08-27T22:08:51.224Z,9.85
2017-08-27T22:11:17.910Z,10.75
2017-08-27T22:13:44.572Z,10.02
2017-08-27T22:16:11.238Z,10.50
2017-08-27T22:18:37.916Z,10.85
2017-08-27T22:21:04.578Z,10.00
2017-08-27T22:23:31.244Z,10.23
2017-08-27T22:25:57.930Z,9.75
2017-08-27T22:28:24.637Z,11.00
2017-08-27T22:30:51.392Z,9.48
2017-08-27T22:33:18.083Z,10.48
2017-08-27T22:35:44.747Z,9.43
2017-08-27T22:38:11.407Z,9.02
2017-08-27T22:40:38.080Z,10.00
2017-08-27T22:43:04.739Z,8.50
2017-08-27T22:45:31.392Z,9.25
2017-08-27T22:47:58.166Z,8.88
2017-08-27T22:50:24.812Z,8.45
2017-08-27T22:52:51.459Z,9.02
2017-08-27T22:55:18.124Z,8.88
2017-08-27T22:57:45.698Z,8.68
2017-08-27T23:00:12.359Z,8.77
2017-08-27T23:02:39.047Z,8.48
2017-08-27T23:05:05.748Z,7.97
2017-08-27T23:07:32.394Z,7.40
2017-08-27T23:09:59.078Z,7.37
2017-08-27T23:12:25.719Z,7.55
2017-08-27T23:14:52.407Z,7.30
2017-08-27T23:17:19.072Z,7.93
2017-08-27T23:19:45.793Z,8.55
2017-08-27T23:22:12.451Z,7.78
2017-08-27T23:24:39.190Z,9.27
2017-08-27T23:27:05.852Z,7.30
2017-08-27T23:29:32.553Z,7.10
2017-08-27T23:31:59.312Z,8.20
2017-08-27T23:34:25.966Z,7.80
2017-08-27T23:36:52.631Z,7.62
2017-08-27T23:39:19.300Z,7.40
2017-08-27T23:41:46.071Z,7.53
2017-08-27T23:44:12.730Z,7.93
2017-08-27T23:46:39.396Z,8.10
2017-08-27T23:49:06.040Z,7.10
2017-08-27T23:51:32.687Z,8.75
2017-08-27T23:53:59.453Z,7.68
2017-08-27T23:56:26.196Z,7.40
2017-08-27T23:58:52.859Z,7.47
